Latest Weather Observations for Hunters Hill

IDV60801

Issued at 5:32 am EDT Tuesday 24 October 2017 (issued every 30 minutes, with the page automatically refreshed every 10 minutes)

About weather observations | Map of weather stations | Latest weather observations for VIC | Other Formats
Station Details ID: 082139 Name: HUNTERS HILL Lat: -36.21 Lon: 147.54 Height: 981.0 m
Data from the previous 72 hours. | See also: Recent months at Hunters Hill
Date/Time
EDT
Temp
°C
App
Temp
°C
Dew
Point
°C
Rel
Hum
%
Delta-T
°C
Wind Press
QNH
hPa
Press
MSL
hPa
Rain since
9am
mm
Dir  Spd
km/h
Gust
km/h
Spd
kts
Gust
kts
24/05:30am 11.4 9.0 4.4 62 3.3 N 6 9 3 5 - - 0.0
24/05:00am 11.4 9.0 4.4 62 3.3 N 6 7 3 4 - - 0.0
24/04:30am 11.0 8.6 4.5 64 3.1 N 6 7 3 4 - - 0.0
24/04:00am 10.9 8.9 4.4 64 3.1 N 4 6 2 3 - - 0.0
24/03:30am 11.4 9.0 4.2 61 3.4 N 6 7 3 4 - - 0.0
24/03:00am 11.4 9.6 5.3 66 3.0 WSW 4 6 2 3 - - 0.0
24/02:30am 11.2 9.2 4.2 62 3.3 WSW 4 6 2 3 - - 0.0
24/02:00am 11.6 9.5 4.1 60 3.6 WSW 4 6 2 3 - - 0.0
24/01:30am 12.0 10.7 5.9 66 3.0 WSW 2 4 1 2 - - 0.0
24/01:00am 11.8 10.1 6.1 68 2.8 WSW 4 4 2 2 - - 0.0
24/12:30am 12.1 10.2 4.8 61 3.5 WSW 4 6 2 3 - - 0.0
24/12:00am 11.4 9.2 3.4 58 3.7 WSW 4 6 2 3 - - 0.0
 
Date/Time
EDT
Temp
°C
App
Temp
°C
Dew
Point
°C
Rel
Hum
%
Delta-T
°C
Wind Press
QNH
hPa
Press
MSL
hPa
Rain since
9am
mm
Dir  Spd
km/h
Gust
km/h
Spd
kts
Gust
kts
23/11:30pm 11.6 9.5 3.9 59 3.6 WSW 4 6 2 3 - - 0.0
23/11:00pm 11.5 9.2 4.7 63 3.3 WSW 6 7 3 4 - - 0.0
23/10:30pm 11.6 9.6 4.3 61 3.5 WSW 4 4 2 2 - - 0.0
23/10:00pm 11.8 9.6 3.6 57 3.9 WSW 4 6 2 3 - - 0.0
23/09:30pm 12.2 10.4 3.7 56 4.0 WSW 2 6 1 3 - - 0.0
23/09:00pm 12.5 9.7 2.1 49 4.8 WSW 6 9 3 5 - - 0.0
23/08:30pm 12.4 9.2 -0.8 40 5.7 W 6 9 3 5 - - 0.0
23/08:00pm 12.3 9.3 1.0 46 5.0 WSW 6 9 3 5 - - 0.0
23/07:30pm 12.5 9.6 2.4 50 4.7 W 7 13 4 7 - - 0.0
23/07:00pm 13.9 11.5 4.5 53 4.6 W 6 13 3 7 - - 0.0
23/06:30pm 14.8 12.3 4.5 50 5.1 W 7 11 4 6 - - 0.0
23/06:00pm 15.7 13.4 5.9 52 5.0 W 7 13 4 7 - - 0.0
23/05:30pm 16.4 14.2 6.2 51 5.2 WSW 7 15 4 8 - - 0.0
23/05:00pm 16.0 13.5 6.7 54 4.8 W 9 17 5 9 - - 0.0
23/04:30pm 15.9 13.3 6.1 52 5.0 NW 9 19 5 10 - - 0.0
23/04:00pm 15.8 13.3 6.5 54 4.8 WNW 9 19 5 10 - - 0.0
23/03:30pm 17.0 14.9 6.8 51 5.3 NW 7 20 4 11 - - 0.0
23/03:00pm 16.1 13.7 5.4 49 5.4 NW 7 15 4 8 - - 0.0
23/02:30pm 17.3 16.0 7.6 53 5.1 N 4 9 2 5 - - 0.0
23/02:00pm 16.9 14.9 6.4 50 5.4 W 6 9 3 5 - - 0.0
23/01:30pm 15.0 12.6 5.2 52 4.9 W 7 15 4 8 - - 0.0
23/01:00pm 15.8 13.7 6.5 54 4.8 NW 7 13 4 7 - - 0.0
23/12:30pm 15.0 12.9 6.8 58 4.2 NW 7 15 4 8 - - 0.0
23/12:00pm 14.3 12.1 6.2 58 4.1 NW 7 20 4 11 - - 0.0
23/11:30am 13.6 11.1 4.7 55 4.3 WNW 7 17 4 9 - - 0.0
23/11:00am 13.9 11.4 3.9 51 4.8 N 6 11 3 6 - - 0.0
23/10:30am 14.1 12.6 4.9 54 4.5 SSE 2 6 1 3 - - 0.0
23/10:00am 12.0 10.4 4.5 60 3.6 SSE 2 7 1 4 - - 0.0
23/09:30am 11.6 10.2 7.1 74 2.3 SSE 4 7 2 4 - - 0.0
23/09:00am 10.8 9.1 3.8 62 3.3 SSE 2 4 1 2 - - 0.0
23/08:30am 9.1 7.8 3.9 70 2.4 CALM 0 0 0 0 - - 0.0
23/08:00am 8.3 7.0 3.9 74 2.0 CALM 0 4 0 2 - - 0.0
23/07:30am 7.3 5.1 3.2 75 1.8 SSE 4 6 2 3 - - 0.0
23/07:00am 6.7 5.1 4.5 86 1.0 SSE 2 4 1 2 - - 0.0
23/06:30am 6.2 4.7 4.8 91 0.6 SSE 2 4 1 2 - - 0.0
23/06:00am 6.2 4.6 4.5 89 0.8 SSE 2 4 1 2 - - 0.0
23/05:30am 6.3 4.8 4.9 91 0.6 SSE 2 4 1 2 - - 0.0
23/05:00am 5.9 4.0 4.9 93 0.5 SSE 4 6 2 3 - - 0.0
23/04:30am 6.5 4.6 5.1 91 0.7 SSE 4 6 2 3 - - 0.0
23/04:00am 6.6 4.8 5.2 91 0.7 SSE 4 6 2 3 - - 0.0
23/03:30am 6.7 5.2 5.2 90 0.7 SSE 2 6 1 3 - - 0.0
23/03:00am 7.0 5.2 5.5 90 0.7 SSE 4 6 2 3 - - 0.0
23/02:30am 7.0 5.2 5.6 91 0.7 SSE 4 6 2 3 - - 0.0
23/02:00am 6.9 5.1 5.5 91 0.7 SSE 4 6 2 3 - - 0.0
23/01:30am 7.0 5.2 5.5 90 0.7 SSE 4 6 2 3 - - 0.0
23/01:00am 7.4 5.6 5.5 88 0.9 SSE 4 6 2 3 - - 0.0
23/12:30am 7.6 5.4 5.2 85 1.1 SSE 6 7 3 4 - - 0.0
23/12:00am 8.0 5.8 5.1 82 1.4 SSE 6 11 3 6 - - 0.0
 
Date/Time
EDT
Temp
°C
App
Temp
°C
Dew
Point
°C
Rel
Hum
%
Delta-T
°C
Wind Press
QNH
hPa
Press
MSL
hPa
Rain since
9am
mm
Dir  Spd
km/h
Gust
km/h
Spd
kts
Gust
kts
22/11:30pm 7.9 6.4 4.8 81 1.5 SSE 2 6 1 3 - - 0.0
22/11:00pm 8.9 6.6 4.9 76 1.9 SSE 6 11 3 6 - - 0.0
22/10:30pm 8.9 6.6 4.7 75 2.0 S 6 11 3 6 - - 0.0
22/10:00pm 9.1 6.7 4.5 73 2.2 SSW 6 9 3 5 - - 0.0
22/09:30pm 9.4 7.4 4.2 70 2.4 SW 4 7 2 4 - - 0.0
22/09:00pm 9.2 7.3 4.8 74 2.1 S 4 7 2 4 - - 0.0
22/08:30pm 9.0 7.5 4.8 75 2.0 SSE 2 6 1 3 - - 0.0
22/08:00pm 8.9 7.8 5.3 78 1.7 CALM 0 2 0 1 - - 0.0
22/07:30pm 9.7 8.6 5.3 74 2.1 CALM 0 4 0 2 - - 0.0
22/07:00pm 11.8 10.3 4.8 62 3.4 SSE 2 6 1 3 - - 0.0
22/06:30pm 12.7 11.2 4.9 59 3.8 S 2 9 1 5 - - 0.0
22/06:00pm 11.9 10.0 5.1 63 3.3 WSW 4 6 2 3 - - 0.0
22/05:30pm 13.6 11.5 3.9 52 4.7 WSW 4 9 2 5 - - 0.0
22/05:00pm 14.1 12.4 6.0 58 4.1 SE 4 6 2 3 - - 0.0
22/04:30pm 14.7 12.9 5.5 54 4.6 SW 4 7 2 4 - - 0.0
22/04:00pm 14.6 12.9 5.7 55 4.5 S 4 9 2 5 - - 0.0
22/03:30pm 13.8 12.4 5.4 57 4.2 SSE 2 6 1 3 - - 0.0
22/03:00pm 13.0 11.5 4.9 58 4.0 W 2 6 1 3 - - 0.0
22/02:30pm 12.7 10.6 3.9 55 4.2 ESE 4 9 2 5 - - 0.0
22/02:00pm 13.4 11.2 3.5 51 4.7 S 4 13 2 7 - - 0.0
22/01:30pm 12.9 10.6 2.5 49 4.8 SW 4 9 2 5 - - 0.0
22/01:00pm 14.3 12.2 4.0 50 5.0 S 4 7 2 4 - - 0.0
22/12:30pm 12.0 9.9 3.8 57 3.9 S 4 9 2 5 - - 0.0
22/12:00pm 12.4 10.3 4.1 57 4.0 ESE 4 11 2 6 - - 0.0
22/11:30am 13.7 12.0 4.0 52 4.7 S 2 6 1 3 - - 0.0
22/11:00am 13.8 12.0 5.2 56 4.3 SE 4 7 2 4 - - 0.0
22/10:30am 12.0 10.0 4.5 60 3.6 SSE 4 9 2 5 - - 0.0
22/10:00am 11.7 10.0 6.0 68 2.8 SSE 4 7 2 4 - - 0.0
22/09:30am 9.8 7.2 3.3 64 3.0 SSE 6 13 3 7 - - 0.0
22/09:00am 9.7 7.4 2.6 61 3.2 SE 4 7 2 4 - - 0.0
22/08:30am 7.6 5.2 2.3 69 2.3 SE 4 6 2 3 - - 0.0
22/08:00am 6.4 4.2 3.2 80 1.4 SE 4 9 2 5 - - 0.0
22/07:30am 5.5 3.3 3.3 86 1.0 SE 4 6 2 3 - - 0.0
22/07:00am 5.4 2.7 2.6 82 1.2 SE 6 7 3 4 - - 0.0
22/06:30am 5.4 2.6 1.9 78 1.5 SSE 6 11 3 6 - - 0.0
22/06:00am 5.3 2.5 2.3 81 1.3 SSE 6 13 3 7 - - 0.0
22/05:30am 5.7 3.0 3.5 86 1.0 SSE 7 15 4 8 - - 0.0
22/05:00am 5.7 3.5 5.3 97 0.2 SE 6 7 3 4 - - 0.0
22/04:30am 6.2 4.4 5.3 94 0.4 SE 4 6 2 3 - - 0.0
22/04:00am 6.2 4.4 5.2 93 0.5 SE 4 9 2 5 - - 0.0
22/03:30am 6.5 4.3 5.1 91 0.7 SE 6 9 3 5 - - 0.0
22/03:00am 6.7 4.4 4.9 88 0.8 SSE 6 11 3 6 - - 0.0
22/02:30am 7.3 5.4 5.1 86 1.0 SSE 4 7 2 4 - - 0.0
22/02:00am 7.1 4.9 5.1 87 0.9 SE 6 9 3 5 - - 0.0
22/01:30am 7.0 5.1 5.0 87 0.9 SSW 4 7 2 4 - - 0.0
22/01:00am 7.2 5.3 4.9 85 1.1 W 4 6 2 3 - - 0.0
22/12:30am 7.7 6.1 4.7 81 1.4 W 2 6 1 3 - - 0.0
22/12:00am 8.1 6.5 4.3 77 1.8 W 2 6 1 3 - - 0.0
 
Date/Time
EDT
Temp
°C
App
Temp
°C
Dew
Point
°C
Rel
Hum
%
Delta-T
°C
Wind Press
QNH
hPa
Press
MSL
hPa
Rain since
9am
mm
Dir  Spd
km/h
Gust
km/h
Spd
kts
Gust
kts
21/11:30pm 8.5 7.0 2.9 68 2.5 CALM 0 2 0 1 - - 0.0
21/11:00pm 8.9 7.5 3.3 68 2.6 CALM 0 2 0 1 - - 0.0
21/10:30pm 8.9 6.4 3.5 69 2.5 W 6 9 3 5 - - 0.0
21/10:00pm 9.7 6.5 3.2 64 3.0 W 9 13 5 7 - - 0.0
21/09:30pm 9.7 6.5 3.0 63 3.1 W 9 13 5 7 - - 0.0
21/09:00pm 9.6 6.3 2.7 62 3.1 W 9 11 5 6 - - 0.0
21/08:30pm 10.0 6.8 2.8 61 3.3 WSW 9 13 5 7 - - 0.0
21/08:00pm 10.0 6.8 2.8 61 3.3 W 9 17 5 9 - - 0.0
21/07:30pm 10.5 7.5 4.0 64 3.1 W 9 17 5 9 - - 0.0
21/07:00pm 12.0 9.4 4.0 58 3.8 WSW 7 13 4 7 - - 0.0
21/06:30pm 12.8 10.0 3.2 52 4.5 WSW 7 13 4 7 - - 0.0
21/06:00pm 13.5 10.2 2.7 48 5.1 WSW 9 19 5 10 - - 0.0
21/05:30pm 14.7 12.3 5.2 53 4.7 W 7 15 4 8 - - 0.0
21/05:00pm 15.0 12.5 5.0 51 5.0 WNW 7 13 4 7 - - 0.0
21/04:30pm 15.5 13.1 4.3 47 5.5 W 6 11 3 6 - - 0.0
21/04:00pm 14.6 11.4 2.8 45 5.6 WNW 9 19 5 10 - - 0.0
21/03:30pm 13.9 10.8 1.5 43 5.7 NW 7 15 4 8 - - 0.0
21/03:00pm 14.5 10.9 2.7 45 5.6 WNW 11 20 6 11 - - 0.0
21/02:30pm 14.9 12.2 2.4 43 5.9 WSW 6 13 3 7 - - 0.0
21/02:00pm 14.5 11.7 2.1 43 5.8 WSW 6 17 3 9 - - 0.0
21/01:30pm 13.6 10.6 4.2 53 4.5 W 9 15 5 8 - - 0.0
21/01:00pm 13.9 10.9 3.9 51 4.8 W 9 17 5 9 - - 0.0
21/12:30pm 13.4 10.3 1.1 43 5.6 WSW 7 15 4 8 - - 0.0
21/12:00pm 13.8 11.0 1.8 44 5.5 W 6 13 3 7 - - 0.0
21/11:30am 12.9 9.9 0.6 43 5.5 NW 6 9 3 5 - - 0.0
21/11:00am 12.0 8.7 -1.2 40 5.6 NW 6 13 3 7 - - 0.0
21/10:30am 11.1 8.3 -0.1 46 4.8 SSW 4 7 2 4 - - 0.0
21/10:00am 10.1 7.4 0.2 50 4.3 SSW 4 7 2 4 - - 0.0
21/09:30am 10.9 8.8 -0.5 45 4.9 CALM 0 0 0 0 - - 0.0
21/09:00am 9.0 6.7 -2.3 45 4.5 CALM 0 2 0 1 - - 0.0
21/08:30am 6.5 4.6 0.6 66 2.5 CALM 0 2 0 1 - - -
21/08:00am 5.7 3.7 0.1 67 2.3 CALM 0 4 0 2 - - -
21/07:30am 5.2 2.8 0.0 69 2.1 SE 2 4 1 2 - - -
21/07:00am 4.7 1.8 -0.9 67 2.2 SE 4 6 2 3 - - -
21/06:30am 4.4 1.5 -1.4 66 2.3 SE 4 4 2 2 - - -
21/06:00am 4.3 1.8 -1.1 68 2.1 SE 2 2 1 1 - - -

Other Formats:

Comma delimited format used in spreadsheet applications
http://www.bom.gov.au/fwo/IDV60801/IDV60801.94878.axf

JavaScript Object Notation format (JSON) in row-major order
http://www.bom.gov.au/fwo/IDV60801/IDV60801.94878.json